sensor_id;sensor_type;location;lat;lon;timestamp;P1;durP1;ratioP1;P2;durP2;ratioP2
30335;SDS011;17142;47.990;7.846;2024-01-25T07:54:19;5.07;;;4.30;;
30335;SDS011;17142;47.990;7.846;2024-01-25T07:56:45;6.20;;;2.60;;
30335;SDS011;17142;47.990;7.846;2024-01-25T07:59:10;7.53;;;2.50;;
30335;SDS011;17142;47.990;7.846;2024-01-25T08:01:38;5.83;;;3.47;;
30335;SDS011;17142;47.990;7.846;2024-01-25T08:04:06;5.40;;;3.10;;
30335;SDS011;17142;47.990;7.846;2024-01-25T08:06:34;5.80;;;2.90;;
30335;SDS011;17142;47.990;7.846;2024-01-25T08:09:00;5.50;;;3.30;;
30335;SDS011;17142;47.990;7.846;2024-01-25T08:11:28;5.67;;;3.40;;
30335;SDS011;17142;47.990;7.846;2024-01-25T08:13:53;2.60;;;2.03;;
30335;SDS011;17142;47.990;7.846;2024-01-25T08:16:22;5.60;;;3.30;;
30335;SDS011;17142;47.990;7.846;2024-01-25T08:18:50;4.53;;;2.83;;
30335;SDS011;17142;47.990;7.846;2024-01-25T08:21:15;4.13;;;2.90;;
30335;SDS011;17142;47.990;7.846;2024-01-25T08:23:41;3.60;;;3.10;;
30335;SDS011;17142;47.990;7.846;2024-01-25T08:26:07;2.93;;;2.47;;
30335;SDS011;17142;47.990;7.846;2024-01-25T08:28:42;3.50;;;3.20;;
30335;SDS011;17142;47.990;7.846;2024-01-25T08:31:11;4.50;;;2.70;;
30335;SDS011;17142;47.990;7.846;2024-01-25T08:33:38;7.47;;;3.10;;
30335;SDS011;17142;47.990;7.846;2024-01-25T08:36:09;3.80;;;3.30;;
30335;SDS011;17142;47.990;7.846;2024-01-25T08:38:35;4.40;;;3.17;;
30335;SDS011;17142;47.990;7.846;2024-01-25T08:41:01;3.47;;;3.17;;
30335;SDS011;17142;47.990;7.846;2024-01-25T08:43:26;3.00;;;2.30;;
30335;SDS011;17142;47.990;7.846;2024-01-25T08:45:52;5.00;;;3.23;;
30335;SDS011;17142;47.990;7.846;2024-01-25T08:48:20;4.20;;;3.53;;
30335;SDS011;17142;47.990;7.846;2024-01-25T08:50:48;3.77;;;3.40;;
30335;SDS011;17142;47.990;7.846;2024-01-25T08:53:18;7.40;;;3.23;;
30335;SDS011;17142;47.990;7.846;2024-01-25T08:55:46;4.30;;;2.80;;
30335;SDS011;17142;47.990;7.846;2024-01-25T08:58:12;4.30;;;3.30;;
30335;SDS011;17142;47.990;7.846;2024-01-25T09:00:37;5.47;;;3.70;;
30335;SDS011;17142;47.990;7.846;2024-01-25T09:03:03;3.93;;;2.90;;
30335;SDS011;17142;47.990;7.846;2024-01-25T09:05:29;4.03;;;2.90;;
30335;SDS011;17142;47.990;7.846;2024-01-25T09:08:04;3.60;;;2.70;;
30335;SDS011;17142;47.990;7.846;2024-01-25T09:10:30;2.47;;;2.27;;
30335;SDS011;17142;47.990;7.846;2024-01-25T09:12:56;3.20;;;2.20;;
30335;SDS011;17142;47.990;7.846;2024-01-25T09:15:21;5.77;;;3.50;;
30335;SDS011;17142;47.990;7.846;2024-01-25T09:17:47;2.10;;;1.53;;
30335;SDS011;17142;47.990;7.846;2024-01-25T09:20:12;3.77;;;2.17;;
30335;SDS011;17142;47.990;7.846;2024-01-25T09:22:38;3.73;;;1.87;;
30335;SDS011;17142;47.990;7.846;2024-01-25T09:25:06;2.30;;;2.10;;
30335;SDS011;17142;47.990;7.846;2024-01-25T09:27:32;5.83;;;2.53;;
30335;SDS011;17142;47.990;7.846;2024-01-25T09:29:58;3.93;;;2.50;;
30335;SDS011;17142;47.990;7.846;2024-01-25T09:32:24;4.23;;;2.33;;
30335;SDS011;17142;47.990;7.846;2024-01-25T09:34:49;4.07;;;3.00;;
30335;SDS011;17142;47.990;7.846;2024-01-25T09:37:15;5.80;;;2.50;;
30335;SDS011;17142;47.990;7.846;2024-01-25T09:39:42;4.90;;;2.50;;
30335;SDS011;17142;47.990;7.846;2024-01-25T09:42:08;4.20;;;2.60;;
30335;SDS011;17142;47.990;7.846;2024-01-25T09:44:35;7.50;;;3.37;;
30335;SDS011;17142;47.990;7.846;2024-01-25T09:47:03;6.37;;;3.00;;
30335;SDS011;17142;47.990;7.846;2024-01-25T09:49:32;3.97;;;2.80;;
30335;SDS011;17142;47.990;7.846;2024-01-25T09:51:58;9.13;;;2.90;;
30335;SDS011;17142;47.990;7.846;2024-01-25T09:54:28;4.73;;;2.30;;
30335;SDS011;17142;47.990;7.846;2024-01-25T09:56:59;10.43;;;3.30;;
30335;SDS011;17142;47.990;7.846;2024-01-25T09:59:25;1.80;;;1.70;;
30335;SDS011;17142;47.990;7.846;2024-01-25T10:01:54;4.57;;;1.90;;
30335;SDS011;17142;47.990;7.846;2024-01-25T10:04:21;2.70;;;1.70;;
30335;SDS011;17142;47.990;7.846;2024-01-25T10:06:48;10.13;;;2.20;;
30335;SDS011;17142;47.990;7.846;2024-01-25T10:09:14;5.60;;;2.03;;
30335;SDS011;17142;47.990;7.846;2024-01-25T10:11:39;4.73;;;2.00;;
30335;SDS011;17142;47.990;7.846;2024-01-25T10:14:05;3.80;;;2.20;;
30335;SDS011;17142;47.990;7.846;2024-01-25T10:16:33;2.70;;;2.00;;
30335;SDS011;17142;47.990;7.846;2024-01-25T10:19:02;5.63;;;2.63;;
30335;SDS011;17142;47.990;7.846;2024-01-25T10:21:34;3.70;;;2.40;;
30335;SDS011;17142;47.990;7.846;2024-01-25T10:24:01;3.47;;;2.40;;
30335;SDS011;17142;47.990;7.846;2024-01-25T10:26:28;4.10;;;1.90;;
30335;SDS011;17142;47.990;7.846;2024-01-25T10:28:56;5.87;;;2.20;;
30335;SDS011;17142;47.990;7.846;2024-01-25T10:31:25;3.27;;;2.33;;
30335;SDS011;17142;47.990;7.846;2024-01-25T10:33:52;9.90;;;2.63;;
30335;SDS011;17142;47.990;7.846;2024-01-25T10:36:21;2.40;;;1.87;;
30335;SDS011;17142;47.990;7.846;2024-01-25T10:38:50;2.07;;;1.87;;
30335;SDS011;17142;47.990;7.846;2024-01-25T10:41:16;3.13;;;1.80;;
30335;SDS011;17142;47.990;7.846;2024-01-25T10:43:43;2.23;;;1.57;;
30335;SDS011;17142;47.990;7.846;2024-01-25T10:46:12;5.97;;;2.33;;
30335;SDS011;17142;47.990;7.846;2024-01-25T10:48:40;1.93;;;1.50;;
30335;SDS011;17142;47.990;7.846;2024-01-25T10:51:07;5.40;;;1.30;;
30335;SDS011;17142;47.990;7.846;2024-01-25T10:53:38;4.13;;;1.20;;
30335;SDS011;17142;47.990;7.846;2024-01-25T10:56:04;1.70;;;0.97;;
30335;SDS011;17142;47.990;7.846;2024-01-25T10:58:31;4.23;;;1.67;;
30335;SDS011;17142;47.990;7.846;2024-01-25T11:00:58;4.03;;;2.03;;
30335;SDS011;17142;47.990;7.846;2024-01-25T11:03:28;8.27;;;2.00;;
30335;SDS011;17142;47.990;7.846;2024-01-25T11:06:04;1.80;;;1.67;;
30335;SDS011;17142;47.990;7.846;2024-01-25T11:08:36;2.57;;;1.40;;
30335;SDS011;17142;47.990;7.846;2024-01-25T11:11:05;6.00;;;1.20;;
30335;SDS011;17142;47.990;7.846;2024-01-25T11:13:33;3.10;;;1.30;;
30335;SDS011;17142;47.990;7.846;2024-01-25T11:15:58;3.50;;;1.30;;
30335;SDS011;17142;47.990;7.846;2024-01-25T11:18:35;3.20;;;1.97;;
30335;SDS011;17142;47.990;7.846;2024-01-25T11:21:03;3.53;;;1.43;;
30335;SDS011;17142;47.990;7.846;2024-01-25T11:23:31;2.60;;;1.63;;
30335;SDS011;17142;47.990;7.846;2024-01-25T11:25:57;4.30;;;2.57;;
30335;SDS011;17142;47.990;7.846;2024-01-25T11:28:23;1.43;;;1.33;;
30335;SDS011;17142;47.990;7.846;2024-01-25T11:30:48;1.53;;;1.27;;
30335;SDS011;17142;47.990;7.846;2024-01-25T11:33:14;3.00;;;1.50;;
30335;SDS011;17142;47.990;7.846;2024-01-25T11:35:40;5.00;;;1.07;;
30335;SDS011;17142;47.990;7.846;2024-01-25T11:38:08;1.50;;;1.00;;
30335;SDS011;17142;47.990;7.846;2024-01-25T11:40:34;3.13;;;1.07;;
30335;SDS011;17142;47.990;7.846;2024-01-25T11:43:01;1.63;;;1.00;;
30335;SDS011;17142;47.990;7.846;2024-01-25T11:45:27;1.67;;;1.20;;
30335;SDS011;17142;47.990;7.846;2024-01-25T11:47:53;3.27;;;1.20;;
30335;SDS011;17142;47.990;7.846;2024-01-25T11:50:19;1.20;;;1.07;;
30335;SDS011;17142;47.990;7.846;2024-01-25T11:52:46;1.17;;;1.07;;
30335;SDS011;17142;47.990;7.846;2024-01-25T11:55:15;2.20;;;1.37;;
30335;SDS011;17142;47.990;7.846;2024-01-25T11:57:41;1.03;;;0.90;;
30335;SDS011;17142;47.990;7.846;2024-01-25T12:00:10;3.17;;;1.30;;
30335;SDS011;17142;47.990;7.846;2024-01-25T12:02:39;1.40;;;1.07;;
30335;SDS011;17142;47.990;7.846;2024-01-25T12:05:05;1.00;;;0.80;;
30335;SDS011;17142;47.990;7.846;2024-01-25T12:07:33;1.80;;;1.03;;
30335;SDS011;17142;47.990;7.846;2024-01-25T12:10:04;0.93;;;0.87;;
30335;SDS011;17142;47.990;7.846;2024-01-25T12:12:34;3.60;;;2.07;;
30335;SDS011;17142;47.990;7.846;2024-01-25T12:15:01;1.67;;;1.00;;
30335;SDS011;17142;47.990;7.846;2024-01-25T12:17:29;1.80;;;1.40;;
30335;SDS011;17142;47.990;7.846;2024-01-25T12:19:59;1.90;;;0.90;;
30335;SDS011;17142;47.990;7.846;2024-01-25T12:22:30;1.90;;;1.23;;
30335;SDS011;17142;47.990;7.846;2024-01-25T12:24:56;1.43;;;1.30;;
30335;SDS011;17142;47.990;7.846;2024-01-25T12:27:23;3.87;;;1.00;;
30335;SDS011;17142;47.990;7.846;2024-01-25T12:29:50;2.83;;;1.40;;
30335;SDS011;17142;47.990;7.846;2024-01-25T12:32:18;1.43;;;1.33;;
30335;SDS011;17142;47.990;7.846;2024-01-25T12:35:00;3.40;;;1.30;;
30335;SDS011;17142;47.990;7.846;2024-01-25T12:37:29;2.30;;;1.50;;
30335;SDS011;17142;47.990;7.846;2024-01-25T12:39:54;3.03;;;1.83;;
30335;SDS011;17142;47.990;7.846;2024-01-25T12:42:21;2.50;;;1.40;;
30335;SDS011;17142;47.990;7.846;2024-01-25T12:44:47;4.23;;;1.10;;
30335;SDS011;17142;47.990;7.846;2024-01-25T12:47:15;2.40;;;1.53;;
30335;SDS011;17142;47.990;7.846;2024-01-25T12:49:43;1.57;;;1.30;;
30335;SDS011;17142;47.990;7.846;2024-01-25T12:52:09;4.30;;;1.80;;
30335;SDS011;17142;47.990;7.846;2024-01-25T12:54:38;2.00;;;1.80;;
30335;SDS011;17142;47.990;7.846;2024-01-25T12:57:04;2.30;;;1.70;;
30335;SDS011;17142;47.990;7.846;2024-01-25T12:59:31;3.97;;;2.30;;
30335;SDS011;17142;47.990;7.846;2024-01-25T13:01:58;4.67;;;3.30;;
30335;SDS011;17142;47.990;7.846;2024-01-25T13:04:26;2.80;;;2.60;;
30335;SDS011;17142;47.990;7.846;2024-01-25T13:06:52;2.90;;;2.53;;
30335;SDS011;17142;47.990;7.846;2024-01-25T13:09:22;2.47;;;2.27;;
30335;SDS011;17142;47.990;7.846;2024-01-25T13:11:48;4.03;;;2.90;;
30335;SDS011;17142;47.990;7.846;2024-01-25T13:14:17;2.33;;;2.13;;
30335;SDS011;17142;47.990;7.846;2024-01-25T13:16:43;2.33;;;2.13;;
30335;SDS011;17142;47.990;7.846;2024-01-25T13:19:08;3.50;;;2.87;;
30335;SDS011;17142;47.990;7.846;2024-01-25T13:21:34;5.07;;;3.80;;
30335;SDS011;17142;47.990;7.846;2024-01-25T13:24:00;3.23;;;2.63;;
30335;SDS011;17142;47.990;7.846;2024-01-25T13:26:26;2.93;;;2.67;;
30335;SDS011;17142;47.990;7.846;2024-01-25T13:28:52;4.13;;;3.10;;
30335;SDS011;17142;47.990;7.846;2024-01-25T13:31:20;3.73;;;2.97;;
30335;SDS011;17142;47.990;7.846;2024-01-25T13:33:48;2.93;;;2.67;;
30335;SDS011;17142;47.990;7.846;2024-01-25T13:36:13;3.53;;;3.23;;
30335;SDS011;17142;47.990;7.846;2024-01-25T13:38:42;5.13;;;3.20;;
30335;SDS011;17142;47.990;7.846;2024-01-25T13:41:07;8.43;;;5.27;;
30335;SDS011;17142;47.990;7.846;2024-01-25T13:43:33;5.43;;;4.03;;
30335;SDS011;17142;47.990;7.846;2024-01-25T13:45:59;5.17;;;3.50;;
30335;SDS011;17142;47.990;7.846;2024-01-25T13:48:24;8.43;;;5.90;;
30335;SDS011;17142;47.990;7.846;2024-01-25T13:50:53;5.00;;;4.43;;
30335;SDS011;17142;47.990;7.846;2024-01-25T13:53:18;6.37;;;3.80;;
30335;SDS011;17142;47.990;7.846;2024-01-25T13:55:44;3.10;;;2.80;;
30335;SDS011;17142;47.990;7.846;2024-01-25T13:58:12;3.53;;;2.83;;
30335;SDS011;17142;47.990;7.846;2024-01-25T14:00:38;4.00;;;3.40;;
30335;SDS011;17142;47.990;7.846;2024-01-25T14:03:04;3.30;;;3.00;;
30335;SDS011;17142;47.990;7.846;2024-01-25T14:05:31;4.77;;;3.23;;
30335;SDS011;17142;47.990;7.846;2024-01-25T14:07:59;4.50;;;2.63;;
30335;SDS011;17142;47.990;7.846;2024-01-25T14:10:27;2.60;;;2.40;;
30335;SDS011;17142;47.990;7.846;2024-01-25T14:12:53;3.30;;;3.00;;
30335;SDS011;17142;47.990;7.846;2024-01-25T14:15:21;4.57;;;3.10;;
30335;SDS011;17142;47.990;7.846;2024-01-25T14:17:47;3.63;;;2.33;;
30335;SDS011;17142;47.990;7.846;2024-01-25T14:20:13;3.70;;;2.70;;
30335;SDS011;17142;47.990;7.846;2024-01-25T14:22:38;4.77;;;3.70;;
30335;SDS011;17142;47.990;7.846;2024-01-25T14:25:04;4.47;;;4.03;;
30335;SDS011;17142;47.990;7.846;2024-01-25T14:27:30;3.60;;;3.27;;
30335;SDS011;17142;47.990;7.846;2024-01-25T14:29:56;6.20;;;3.10;;
30335;SDS011;17142;47.990;7.846;2024-01-25T14:32:21;4.40;;;4.10;;
30335;SDS011;17142;47.990;7.846;2024-01-25T14:34:48;4.33;;;3.53;;
30335;SDS011;17142;47.990;7.846;2024-01-25T14:37:13;4.60;;;3.80;;
30335;SDS011;17142;47.990;7.846;2024-01-25T14:39:39;3.97;;;3.57;;
30335;SDS011;17142;47.990;7.846;2024-01-25T14:42:11;4.60;;;4.20;;
30335;SDS011;17142;47.990;7.846;2024-01-25T14:44:37;4.33;;;3.93;;
30335;SDS011;17142;47.990;7.846;2024-01-25T14:47:05;6.10;;;4.03;;
30335;SDS011;17142;47.990;7.846;2024-01-25T14:49:31;3.37;;;3.07;;
30335;SDS011;17142;47.990;7.846;2024-01-25T14:51:57;3.97;;;3.57;;
30335;SDS011;17142;47.990;7.846;2024-01-25T14:54:22;6.23;;;3.80;;
30335;SDS011;17142;47.990;7.846;2024-01-25T14:56:48;4.50;;;3.50;;
30335;SDS011;17142;47.990;7.846;2024-01-25T14:59:15;4.57;;;4.07;;
30335;SDS011;17142;47.990;7.846;2024-01-25T15:01:46;5.40;;;4.60;;
30335;SDS011;17142;47.990;7.846;2024-01-25T15:04:14;4.93;;;4.43;;
30335;SDS011;17142;47.990;7.846;2024-01-25T15:06:42;4.47;;;4.07;;
30335;SDS011;17142;47.990;7.846;2024-01-25T15:09:09;4.50;;;3.67;;
30335;SDS011;17142;47.990;7.846;2024-01-25T15:11:39;12.60;;;4.53;;
30335;SDS011;17142;47.990;7.846;2024-01-25T15:14:05;4.90;;;4.40;;
30335;SDS011;17142;47.990;7.846;2024-01-25T15:16:30;6.10;;;4.00;;
30335;SDS011;17142;47.990;7.846;2024-01-25T15:18:57;4.00;;;3.60;;
30335;SDS011;17142;47.990;7.846;2024-01-25T15:21:25;6.80;;;5.60;;
30335;SDS011;17142;47.990;7.846;2024-01-25T15:23:52;5.63;;;5.10;;
30335;SDS011;17142;47.990;7.846;2024-01-25T15:26:18;6.40;;;4.50;;
30335;SDS011;17142;47.990;7.846;2024-01-25T15:28:45;5.37;;;4.87;;
30335;SDS011;17142;47.990;7.846;2024-01-25T15:31:12;5.40;;;4.00;;
30335;SDS011;17142;47.990;7.846;2024-01-25T15:33:38;10.90;;;4.77;;
30335;SDS011;17142;47.990;7.846;2024-01-25T15:36:03;6.23;;;4.73;;
30335;SDS011;17142;47.990;7.846;2024-01-25T15:38:32;5.60;;;4.83;;
30335;SDS011;17142;47.990;7.846;2024-01-25T15:40:57;7.90;;;4.57;;
30335;SDS011;17142;47.990;7.846;2024-01-25T15:43:25;8.50;;;5.60;;
30335;SDS011;17142;47.990;7.846;2024-01-25T15:45:55;9.90;;;5.73;;
30335;SDS011;17142;47.990;7.846;2024-01-25T15:48:23;7.73;;;5.13;;
30335;SDS011;17142;47.990;7.846;2024-01-25T15:50:48;10.90;;;5.70;;
30335;SDS011;17142;47.990;7.846;2024-01-25T15:53:16;10.83;;;6.67;;
30335;SDS011;17142;47.990;7.846;2024-01-25T15:55:42;6.30;;;4.63;;
30335;SDS011;17142;47.990;7.846;2024-01-25T15:58:08;8.40;;;5.70;;
30335;SDS011;17142;47.990;7.846;2024-01-25T16:00:33;6.80;;;4.73;;
30335;SDS011;17142;47.990;7.846;2024-01-25T16:03:00;8.83;;;5.23;;
30335;SDS011;17142;47.990;7.846;2024-01-25T16:05:25;8.33;;;5.50;;
30335;SDS011;17142;47.990;7.846;2024-01-25T16:07:51;6.70;;;4.90;;
30335;SDS011;17142;47.990;7.846;2024-01-25T16:10:19;6.90;;;5.03;;
30335;SDS011;17142;47.990;7.846;2024-01-25T16:12:46;6.67;;;5.10;;
30335;SDS011;17142;47.990;7.846;2024-01-25T16:15:11;7.27;;;5.30;;
30335;SDS011;17142;47.990;7.846;2024-01-25T16:17:44;8.30;;;5.93;;
30335;SDS011;17142;47.990;7.846;2024-01-25T16:20:10;9.10;;;6.37;;
30335;SDS011;17142;47.990;7.846;2024-01-25T16:22:36;8.00;;;7.03;;
30335;SDS011;17142;47.990;7.846;2024-01-25T16:25:02;7.53;;;6.87;;
30335;SDS011;17142;47.990;7.846;2024-01-25T16:27:31;6.10;;;5.53;;
30335;SDS011;17142;47.990;7.846;2024-01-25T16:29:56;6.20;;;5.70;;
30335;SDS011;17142;47.990;7.846;2024-01-25T16:32:22;6.83;;;6.23;;
30335;SDS011;17142;47.990;7.846;2024-01-25T16:34:48;7.17;;;6.47;;
30335;SDS011;17142;47.990;7.846;2024-01-25T16:37:13;7.40;;;6.37;;
30335;SDS011;17142;47.990;7.846;2024-01-25T16:39:39;7.43;;;6.50;;
30335;SDS011;17142;47.990;7.846;2024-01-25T16:42:04;7.40;;;6.70;;
30335;SDS011;17142;47.990;7.846;2024-01-25T16:44:32;7.23;;;6.50;;
30335;SDS011;17142;47.990;7.846;2024-01-25T16:46:58;6.77;;;6.17;;
30335;SDS011;17142;47.990;7.846;2024-01-25T16:49:23;8.20;;;7.13;;
30335;SDS011;17142;47.990;7.846;2024-01-25T16:51:49;8.93;;;7.43;;
30335;SDS011;17142;47.990;7.846;2024-01-25T16:54:15;7.20;;;6.50;;
30335;SDS011;17142;47.990;7.846;2024-01-25T16:56:40;8.13;;;6.87;;
30335;SDS011;17142;47.990;7.846;2024-01-25T16:59:12;7.30;;;6.60;;
30335;SDS011;17142;47.990;7.846;2024-01-25T17:01:38;9.30;;;8.40;;
30335;SDS011;17142;47.990;7.846;2024-01-25T17:04:09;9.17;;;8.00;;
30335;SDS011;17142;47.990;7.846;2024-01-25T17:06:37;8.73;;;7.70;;
30335;SDS011;17142;47.990;7.846;2024-01-25T17:09:10;10.10;;;7.80;;
30335;SDS011;17142;47.990;7.846;2024-01-25T17:11:40;9.30;;;8.40;;
30335;SDS011;17142;47.990;7.846;2024-01-25T17:14:06;8.67;;;7.73;;
30335;SDS011;17142;47.990;7.846;2024-01-25T17:16:32;11.23;;;9.13;;
30335;SDS011;17142;47.990;7.846;2024-01-25T17:18:58;11.43;;;8.40;;
30335;SDS011;17142;47.990;7.846;2024-01-25T17:21:24;11.00;;;7.60;;
30335;SDS011;17142;47.990;7.846;2024-01-25T17:23:52;8.03;;;7.20;;
30335;SDS011;17142;47.990;7.846;2024-01-25T17:26:20;10.63;;;8.30;;
30335;SDS011;17142;47.990;7.846;2024-01-25T17:28:47;8.40;;;7.60;;
30335;SDS011;17142;47.990;7.846;2024-01-25T17:31:13;8.50;;;7.73;;
30335;SDS011;17142;47.990;7.846;2024-01-25T17:33:39;9.23;;;7.97;;
30335;SDS011;17142;47.990;7.846;2024-01-25T17:36:10;8.73;;;7.83;;
30335;SDS011;17142;47.990;7.846;2024-01-25T17:38:35;8.63;;;7.83;;
30335;SDS011;17142;47.990;7.846;2024-01-25T17:41:04;8.40;;;7.50;;
30335;SDS011;17142;47.990;7.846;2024-01-25T17:43:32;9.10;;;8.20;;
30335;SDS011;17142;47.990;7.846;2024-01-25T17:46:01;12.37;;;7.97;;
30335;SDS011;17142;47.990;7.846;2024-01-25T17:48:27;10.50;;;7.93;;
30335;SDS011;17142;47.990;7.846;2024-01-25T17:50:56;10.10;;;8.37;;
30335;SDS011;17142;47.990;7.846;2024-01-25T17:53:22;9.77;;;8.77;;
30335;SDS011;17142;47.990;7.846;2024-01-25T17:55:48;10.10;;;8.97;;
30335;SDS011;17142;47.990;7.846;2024-01-25T17:58:13;10.30;;;9.00;;
30335;SDS011;17142;47.990;7.846;2024-01-25T18:00:39;10.40;;;9.33;;
30335;SDS011;17142;47.990;7.846;2024-01-25T18:03:05;11.47;;;9.80;;
30335;SDS011;17142;47.990;7.846;2024-01-25T18:05:30;11.53;;;8.80;;
30335;SDS011;17142;47.990;7.846;2024-01-25T18:07:56;8.80;;;7.90;;
30335;SDS011;17142;47.990;7.846;2024-01-25T18:10:22;7.33;;;6.10;;
30335;SDS011;17142;47.990;7.846;2024-01-25T18:12:48;8.30;;;7.33;;
30335;SDS011;17142;47.990;7.846;2024-01-25T18:15:18;7.27;;;6.53;;
30335;SDS011;17142;47.990;7.846;2024-01-25T18:17:46;6.00;;;5.10;;
30335;SDS011;17142;47.990;7.846;2024-01-25T18:20:14;5.83;;;5.23;;
30335;SDS011;17142;47.990;7.846;2024-01-25T18:22:43;5.63;;;4.63;;
30335;SDS011;17142;47.990;7.846;2024-01-25T18:25:08;4.50;;;3.40;;
30335;SDS011;17142;47.990;7.846;2024-01-25T18:27:34;3.60;;;2.60;;
30335;SDS011;17142;47.990;7.846;2024-01-25T18:30:02;3.50;;;2.50;;
30335;SDS011;17142;47.990;7.846;2024-01-25T18:32:30;4.60;;;3.07;;
30335;SDS011;17142;47.990;7.846;2024-01-25T18:34:56;5.87;;;3.10;;
30335;SDS011;17142;47.990;7.846;2024-01-25T18:37:23;3.10;;;2.67;;
30335;SDS011;17142;47.990;7.846;2024-01-25T18:39:49;2.73;;;2.40;;
30335;SDS011;17142;47.990;7.846;2024-01-25T18:42:15;2.03;;;1.83;;
30335;SDS011;17142;47.990;7.846;2024-01-25T18:44:45;2.93;;;1.60;;
30335;SDS011;17142;47.990;7.846;2024-01-25T18:47:11;2.40;;;1.40;;
30335;SDS011;17142;47.990;7.846;2024-01-25T18:49:37;3.20;;;1.60;;
30335;SDS011;17142;47.990;7.846;2024-01-25T18:52:03;1.87;;;1.20;;
30335;SDS011;17142;47.990;7.846;2024-01-25T18:54:29;1.17;;;1.07;;
30335;SDS011;17142;47.990;7.846;2024-01-25T18:56:55;5.03;;;1.50;;
30335;SDS011;17142;47.990;7.846;2024-01-25T18:59:23;3.37;;;1.80;;
30335;SDS011;17142;47.990;7.846;2024-01-25T19:01:52;2.50;;;1.53;;
30335;SDS011;17142;47.990;7.846;2024-01-25T19:04:21;4.50;;;1.80;;
30335;SDS011;17142;47.990;7.846;2024-01-25T19:06:53;2.73;;;1.77;;
30335;SDS011;17142;47.990;7.846;2024-01-25T19:09:21;2.10;;;1.23;;
30335;SDS011;17142;47.990;7.846;2024-01-25T19:11:47;2.30;;;1.50;;
30335;SDS011;17142;47.990;7.846;2024-01-25T19:14:13;2.13;;;1.33;;
30335;SDS011;17142;47.990;7.846;2024-01-25T19:16:39;2.47;;;1.50;;
30335;SDS011;17142;47.990;7.846;2024-01-25T19:19:04;2.73;;;1.60;;
30335;SDS011;17142;47.990;7.846;2024-01-25T19:21:32;6.03;;;2.17;;
30335;SDS011;17142;47.990;7.846;2024-01-25T19:23:58;2.40;;;1.40;;
30335;SDS011;17142;47.990;7.846;2024-01-25T19:26:23;1.57;;;1.47;;
30335;SDS011;17142;47.990;7.846;2024-01-25T19:28:51;3.17;;;2.37;;
30335;SDS011;17142;47.990;7.846;2024-01-25T19:31:17;4.17;;;2.10;;
30335;SDS011;17142;47.990;7.846;2024-01-25T19:33:43;2.90;;;1.90;;
30335;SDS011;17142;47.990;7.846;2024-01-25T19:36:08;3.60;;;2.57;;
30335;SDS011;17142;47.990;7.846;2024-01-25T19:38:34;3.47;;;2.37;;
30335;SDS011;17142;47.990;7.846;2024-01-25T19:41:08;3.20;;;2.17;;
30335;SDS011;17142;47.990;7.846;2024-01-25T19:43:35;3.33;;;1.90;;
30335;SDS011;17142;47.990;7.846;2024-01-25T19:46:01;2.53;;;1.70;;
30335;SDS011;17142;47.990;7.846;2024-01-25T19:48:27;3.90;;;2.20;;
30335;SDS011;17142;47.990;7.846;2024-01-25T19:50:55;3.60;;;2.50;;
30335;SDS011;17142;47.990;7.846;2024-01-25T19:53:22;2.20;;;2.10;;
30335;SDS011;17142;47.990;7.846;2024-01-25T19:55:50;3.30;;;2.00;;
30335;SDS011;17142;47.990;7.846;2024-01-25T19:58:16;2.20;;;1.40;;
30335;SDS011;17142;47.990;7.846;2024-01-25T20:00:42;1.40;;;1.20;;
30335;SDS011;17142;47.990;7.846;2024-01-25T20:03:08;0.90;;;0.80;;
30335;SDS011;17142;47.990;7.846;2024-01-25T20:05:37;1.43;;;1.10;;
30335;SDS011;17142;47.990;7.846;2024-01-25T20:08:03;1.33;;;1.23;;
30335;SDS011;17142;47.990;7.846;2024-01-25T20:10:29;1.70;;;1.23;;
30335;SDS011;17142;47.990;7.846;2024-01-25T20:12:57;2.87;;;1.10;;
30335;SDS011;17142;47.990;7.846;2024-01-25T20:15:23;1.60;;;0.87;;
30335;SDS011;17142;47.990;7.846;2024-01-25T20:17:48;2.40;;;0.90;;
30335;SDS011;17142;47.990;7.846;2024-01-25T20:20:14;2.53;;;2.27;;
30335;SDS011;17142;47.990;7.846;2024-01-25T20:22:40;1.83;;;1.30;;
30335;SDS011;17142;47.990;7.846;2024-01-25T20:25:06;1.13;;;0.93;;
30335;SDS011;17142;47.990;7.846;2024-01-25T20:27:32;1.63;;;1.27;;
30335;SDS011;17142;47.990;7.846;2024-01-25T20:29:57;3.10;;;0.90;;
30335;SDS011;17142;47.990;7.846;2024-01-25T20:32:26;2.00;;;0.87;;
30335;SDS011;17142;47.990;7.846;2024-01-25T20:34:54;2.70;;;1.40;;
30335;SDS011;17142;47.990;7.846;2024-01-25T20:37:21;2.23;;;1.20;;
30335;SDS011;17142;47.990;7.846;2024-01-25T20:39:47;3.60;;;1.63;;
30335;SDS011;17142;47.990;7.846;2024-01-25T20:42:15;2.80;;;1.40;;
30335;SDS011;17142;47.990;7.846;2024-01-25T20:44:41;2.13;;;1.23;;
30335;SDS011;17142;47.990;7.846;2024-01-25T20:47:07;1.73;;;1.10;;
30335;SDS011;17142;47.990;7.846;2024-01-25T20:49:35;2.63;;;1.07;;
30335;SDS011;17142;47.990;7.846;2024-01-25T20:52:00;2.77;;;1.37;;
30335;SDS011;17142;47.990;7.846;2024-01-25T20:54:26;1.23;;;0.80;;
30335;SDS011;17142;47.990;7.846;2024-01-25T20:56:58;1.33;;;0.80;;
30335;SDS011;17142;47.990;7.846;2024-01-25T20:59:26;1.47;;;0.70;;
30335;SDS011;17142;47.990;7.846;2024-01-25T21:01:51;1.60;;;0.80;;
30335;SDS011;17142;47.990;7.846;2024-01-25T21:04:23;1.80;;;0.97;;
30335;SDS011;17142;47.990;7.846;2024-01-25T21:06:54;2.20;;;0.70;;
30335;SDS011;17142;47.990;7.846;2024-01-25T21:09:21;1.83;;;0.80;;
30335;SDS011;17142;47.990;7.846;2024-01-25T21:11:49;1.30;;;0.70;;
30335;SDS011;17142;47.990;7.846;2024-01-25T21:14:15;1.13;;;0.90;;
30335;SDS011;17142;47.990;7.846;2024-01-25T21:16:41;1.27;;;0.73;;
30335;SDS011;17142;47.990;7.846;2024-01-25T21:19:07;1.80;;;0.60;;
30335;SDS011;17142;47.990;7.846;2024-01-25T21:21:32;1.03;;;0.93;;
30335;SDS011;17142;47.990;7.846;2024-01-25T21:24:00;2.20;;;0.93;;
30335;SDS011;17142;47.990;7.846;2024-01-25T21:26:26;1.10;;;0.80;;
30335;SDS011;17142;47.990;7.846;2024-01-25T21:28:52;2.00;;;0.93;;
30335;SDS011;17142;47.990;7.846;2024-01-25T21:31:17;1.97;;;0.90;;
30335;SDS011;17142;47.990;7.846;2024-01-25T21:33:43;1.37;;;0.77;;
30335;SDS011;17142;47.990;7.846;2024-01-25T21:36:10;0.70;;;0.70;;
30335;SDS011;17142;47.990;7.846;2024-01-25T21:38:38;1.00;;;0.90;;
30335;SDS011;17142;47.990;7.846;2024-01-25T21:41:06;1.47;;;0.93;;
30335;SDS011;17142;47.990;7.846;2024-01-25T21:43:32;1.67;;;1.57;;
30335;SDS011;17142;47.990;7.846;2024-01-25T21:46:00;2.17;;;0.80;;
30335;SDS011;17142;47.990;7.846;2024-01-25T21:48:26;1.57;;;1.17;;
30335;SDS011;17142;47.990;7.846;2024-01-25T21:50:51;2.13;;;1.20;;
30335;SDS011;17142;47.990;7.846;2024-01-25T21:53:17;0.80;;;0.80;;
30335;SDS011;17142;47.990;7.846;2024-01-25T21:55:47;2.47;;;1.30;;
30335;SDS011;17142;47.990;7.846;2024-01-25T21:58:13;1.57;;;1.03;;
30335;SDS011;17142;47.990;7.846;2024-01-25T22:00:38;4.33;;;2.00;;
30335;SDS011;17142;47.990;7.846;2024-01-25T22:03:04;1.10;;;0.93;;
30335;SDS011;17142;47.990;7.846;2024-01-25T22:05:29;1.43;;;1.10;;
30335;SDS011;17142;47.990;7.846;2024-01-25T22:07:55;1.63;;;1.00;;
30335;SDS011;17142;47.990;7.846;2024-01-25T22:10:21;1.10;;;1.00;;
30335;SDS011;17142;47.990;7.846;2024-01-25T22:12:46;1.37;;;1.20;;
30335;SDS011;17142;47.990;7.846;2024-01-25T22:15:12;1.27;;;1.17;;
30335;SDS011;17142;47.990;7.846;2024-01-25T22:17:38;1.83;;;1.10;;
30335;SDS011;17142;47.990;7.846;2024-01-25T22:20:06;2.00;;;1.67;;
30335;SDS011;17142;47.990;7.846;2024-01-25T22:22:32;2.60;;;1.10;;
30335;SDS011;17142;47.990;7.846;2024-01-25T22:24:57;1.90;;;1.53;;
30335;SDS011;17142;47.990;7.846;2024-01-25T22:27:24;4.23;;;1.50;;
30335;SDS011;17142;47.990;7.846;2024-01-25T22:29:49;1.90;;;1.20;;
30335;SDS011;17142;47.990;7.846;2024-01-25T22:32:17;1.80;;;0.90;;
30335;SDS011;17142;47.990;7.846;2024-01-25T22:34:43;2.60;;;0.90;;
30335;SDS011;17142;47.990;7.846;2024-01-25T22:37:09;2.60;;;1.77;;
30335;SDS011;17142;47.990;7.846;2024-01-25T22:39:34;1.10;;;0.83;;